sensor_id;sensor_type;location;lat;lon;timestamp;P1;durP1;ratioP1;P2;durP2;ratioP2
15536;SDS011;7870;52.448;13.270;2023-06-10T00:00:46;10.60;;;5.30;;
15536;SDS011;7870;52.448;13.270;2023-06-10T00:03:13;12.00;;;6.05;;
15536;SDS011;7870;52.448;13.270;2023-06-10T00:05:40;13.13;;;5.50;;
15536;SDS011;7870;52.448;13.270;2023-06-10T00:08:07;9.43;;;4.68;;
15536;SDS011;7870;52.448;13.270;2023-06-10T00:10:34;11.43;;;5.88;;
15536;SDS011;7870;52.448;13.270;2023-06-10T00:13:02;10.23;;;4.72;;
15536;SDS011;7870;52.448;13.270;2023-06-10T00:15:30;11.23;;;5.32;;
15536;SDS011;7870;52.448;13.270;2023-06-10T00:17:57;8.98;;;4.80;;
15536;SDS011;7870;52.448;13.270;2023-06-10T00:20:24;9.90;;;5.22;;
15536;SDS011;7870;52.448;13.270;2023-06-10T00:22:51;12.38;;;5.95;;
15536;SDS011;7870;52.448;13.270;2023-06-10T00:25:18;13.85;;;6.60;;
15536;SDS011;7870;52.448;13.270;2023-06-10T00:27:45;13.05;;;6.00;;
15536;SDS011;7870;52.448;13.270;2023-06-10T00:30:12;11.60;;;5.72;;
15536;SDS011;7870;52.448;13.270;2023-06-10T00:32:38;11.60;;;5.72;;
15536;SDS011;7870;52.448;13.270;2023-06-10T00:35:05;14.23;;;6.20;;
15536;SDS011;7870;52.448;13.270;2023-06-10T00:37:33;13.00;;;6.18;;
15536;SDS011;7870;52.448;13.270;2023-06-10T00:40:03;9.95;;;5.45;;
15536;SDS011;7870;52.448;13.270;2023-06-10T00:42:31;11.70;;;5.57;;
15536;SDS011;7870;52.448;13.270;2023-06-10T00:44:57;11.68;;;5.85;;
15536;SDS011;7870;52.448;13.270;2023-06-10T00:47:24;9.93;;;5.22;;
15536;SDS011;7870;52.448;13.270;2023-06-10T00:49:51;9.85;;;5.57;;
15536;SDS011;7870;52.448;13.270;2023-06-10T00:52:18;10.05;;;5.15;;
15536;SDS011;7870;52.448;13.270;2023-06-10T00:54:48;11.05;;;5.90;;
15536;SDS011;7870;52.448;13.270;2023-06-10T00:57:15;18.27;;;6.72;;
15536;SDS011;7870;52.448;13.270;2023-06-10T00:59:42;10.35;;;5.65;;
15536;SDS011;7870;52.448;13.270;2023-06-10T01:02:09;12.65;;;5.90;;
15536;SDS011;7870;52.448;13.270;2023-06-10T01:04:36;11.07;;;5.10;;
15536;SDS011;7870;52.448;13.270;2023-06-10T01:10:02;13.73;;;6.90;;
15536;SDS011;7870;52.448;13.270;2023-06-10T01:15:15;12.70;;;5.43;;
15536;SDS011;7870;52.448;13.270;2023-06-10T01:17:54;11.30;;;5.78;;
15536;SDS011;7870;52.448;13.270;2023-06-10T01:20:21;9.23;;;5.55;;
15536;SDS011;7870;52.448;13.270;2023-06-10T01:22:48;9.00;;;5.25;;
15536;SDS011;7870;52.448;13.270;2023-06-10T01:25:17;14.02;;;5.90;;
15536;SDS011;7870;52.448;13.270;2023-06-10T01:27:45;13.98;;;5.95;;
15536;SDS011;7870;52.448;13.270;2023-06-10T01:30:14;10.35;;;5.97;;
15536;SDS011;7870;52.448;13.270;2023-06-10T01:32:43;10.75;;;4.95;;
15536;SDS011;7870;52.448;13.270;2023-06-10T01:35:14;14.57;;;5.38;;
15536;SDS011;7870;52.448;13.270;2023-06-10T01:37:42;12.63;;;6.10;;
15536;SDS011;7870;52.448;13.270;2023-06-10T01:40:12;15.07;;;5.63;;
15536;SDS011;7870;52.448;13.270;2023-06-10T01:42:39;11.55;;;5.50;;
15536;SDS011;7870;52.448;13.270;2023-06-10T01:45:06;13.52;;;5.85;;
15536;SDS011;7870;52.448;13.270;2023-06-10T01:47:33;11.57;;;5.55;;
15536;SDS011;7870;52.448;13.270;2023-06-10T01:50:00;13.40;;;6.05;;
15536;SDS011;7870;52.448;13.270;2023-06-10T01:52:27;12.75;;;5.47;;
15536;SDS011;7870;52.448;13.270;2023-06-10T01:54:54;12.40;;;5.60;;
15536;SDS011;7870;52.448;13.270;2023-06-10T01:57:20;12.18;;;5.82;;
15536;SDS011;7870;52.448;13.270;2023-06-10T01:59:47;13.43;;;5.55;;
15536;SDS011;7870;52.448;13.270;2023-06-10T02:02:14;11.55;;;5.65;;
15536;SDS011;7870;52.448;13.270;2023-06-10T02:04:40;13.32;;;5.70;;
15536;SDS011;7870;52.448;13.270;2023-06-10T02:07:07;12.20;;;5.05;;
15536;SDS011;7870;52.448;13.270;2023-06-10T02:09:34;13.23;;;5.63;;
15536;SDS011;7870;52.448;13.270;2023-06-10T02:12:02;9.38;;;5.10;;
15536;SDS011;7870;52.448;13.270;2023-06-10T02:14:29;16.40;;;5.55;;
15536;SDS011;7870;52.448;13.270;2023-06-10T02:16:57;9.77;;;5.07;;
15536;SDS011;7870;52.448;13.270;2023-06-10T02:19:23;8.32;;;4.90;;
15536;SDS011;7870;52.448;13.270;2023-06-10T02:21:53;11.38;;;4.82;;
15536;SDS011;7870;52.448;13.270;2023-06-10T02:24:20;12.85;;;5.68;;
15536;SDS011;7870;52.448;13.270;2023-06-10T02:26:47;10.65;;;5.55;;
15536;SDS011;7870;52.448;13.270;2023-06-10T02:29:14;13.90;;;5.85;;
15536;SDS011;7870;52.448;13.270;2023-06-10T02:31:41;11.10;;;5.22;;
15536;SDS011;7870;52.448;13.270;2023-06-10T02:34:08;10.52;;;5.13;;
15536;SDS011;7870;52.448;13.270;2023-06-10T02:36:35;14.35;;;5.53;;
15536;SDS011;7870;52.448;13.270;2023-06-10T02:39:02;13.13;;;6.28;;
15536;SDS011;7870;52.448;13.270;2023-06-10T02:41:31;13.05;;;5.50;;
15536;SDS011;7870;52.448;13.270;2023-06-10T02:43:59;14.35;;;5.70;;
15536;SDS011;7870;52.448;13.270;2023-06-10T02:46:26;13.00;;;5.60;;
15536;SDS011;7870;52.448;13.270;2023-06-10T02:48:55;10.77;;;5.70;;
15536;SDS011;7870;52.448;13.270;2023-06-10T02:51:23;13.02;;;5.30;;
15536;SDS011;7870;52.448;13.270;2023-06-10T02:53:56;15.07;;;5.90;;
15536;SDS011;7870;52.448;13.270;2023-06-10T02:56:22;15.65;;;6.57;;
15536;SDS011;7870;52.448;13.270;2023-06-10T02:58:49;14.52;;;5.45;;
15536;SDS011;7870;52.448;13.270;2023-06-10T03:01:19;12.95;;;5.78;;
15536;SDS011;7870;52.448;13.270;2023-06-10T03:03:58;16.95;;;6.57;;
15536;SDS011;7870;52.448;13.270;2023-06-10T03:06:25;13.52;;;6.18;;
15536;SDS011;7870;52.448;13.270;2023-06-10T03:08:59;11.85;;;5.80;;
15536;SDS011;7870;52.448;13.270;2023-06-10T03:11:26;13.90;;;5.80;;
15536;SDS011;7870;52.448;13.270;2023-06-10T03:13:53;14.05;;;5.68;;
15536;SDS011;7870;52.448;13.270;2023-06-10T03:16:20;15.15;;;5.65;;
15536;SDS011;7870;52.448;13.270;2023-06-10T03:18:48;12.98;;;5.68;;
15536;SDS011;7870;52.448;13.270;2023-06-10T03:21:15;13.35;;;5.68;;
15536;SDS011;7870;52.448;13.270;2023-06-10T03:23:42;13.65;;;6.80;;
15536;SDS011;7870;52.448;13.270;2023-06-10T03:26:08;11.68;;;5.28;;
15536;SDS011;7870;52.448;13.270;2023-06-10T03:28:38;10.32;;;5.78;;
15536;SDS011;7870;52.448;13.270;2023-06-10T03:31:07;10.25;;;5.35;;
15536;SDS011;7870;52.448;13.270;2023-06-10T03:33:34;12.30;;;5.55;;
15536;SDS011;7870;52.448;13.270;2023-06-10T03:36:02;12.55;;;5.03;;
15536;SDS011;7870;52.448;13.270;2023-06-10T03:38:29;13.52;;;6.35;;
15536;SDS011;7870;52.448;13.270;2023-06-10T03:41:00;12.18;;;5.78;;
15536;SDS011;7870;52.448;13.270;2023-06-10T03:43:26;12.63;;;5.72;;
15536;SDS011;7870;52.448;13.270;2023-06-10T03:45:54;13.52;;;6.75;;
15536;SDS011;7870;52.448;13.270;2023-06-10T03:51:09;13.50;;;6.45;;
15536;SDS011;7870;52.448;13.270;2023-06-10T03:53:36;13.85;;;6.38;;
15536;SDS011;7870;52.448;13.270;2023-06-10T03:56:02;13.15;;;6.05;;
15536;SDS011;7870;52.448;13.270;2023-06-10T03:58:29;11.77;;;5.80;;
15536;SDS011;7870;52.448;13.270;2023-06-10T04:00:56;41.30;;;8.70;;
15536;SDS011;7870;52.448;13.270;2023-06-10T04:03:31;14.18;;;6.05;;
15536;SDS011;7870;52.448;13.270;2023-06-10T04:05:58;11.60;;;5.53;;
15536;SDS011;7870;52.448;13.270;2023-06-10T04:08:25;15.35;;;6.10;;
15536;SDS011;7870;52.448;13.270;2023-06-10T04:10:52;14.05;;;6.30;;
15536;SDS011;7870;52.448;13.270;2023-06-10T04:13:19;10.60;;;5.20;;
15536;SDS011;7870;52.448;13.270;2023-06-10T04:15:52;11.73;;;5.97;;
15536;SDS011;7870;52.448;13.270;2023-06-10T04:18:19;11.35;;;5.65;;
15536;SDS011;7870;52.448;13.270;2023-06-10T04:20:50;11.02;;;5.53;;
15536;SDS011;7870;52.448;13.270;2023-06-10T04:23:24;16.10;;;6.38;;
15536;SDS011;7870;52.448;13.270;2023-06-10T04:25:52;12.67;;;6.73;;
15536;SDS011;7870;52.448;13.270;2023-06-10T04:28:19;11.75;;;5.60;;
15536;SDS011;7870;52.448;13.270;2023-06-10T04:30:49;12.02;;;6.22;;
15536;SDS011;7870;52.448;13.270;2023-06-10T04:33:16;12.02;;;5.68;;
15536;SDS011;7870;52.448;13.270;2023-06-10T04:35:43;10.82;;;5.72;;
15536;SDS011;7870;52.448;13.270;2023-06-10T04:38:12;12.63;;;5.95;;
15536;SDS011;7870;52.448;13.270;2023-06-10T04:40:39;12.18;;;4.68;;
15536;SDS011;7870;52.448;13.270;2023-06-10T04:43:07;12.95;;;6.03;;
15536;SDS011;7870;52.448;13.270;2023-06-10T04:45:34;14.40;;;7.05;;
15536;SDS011;7870;52.448;13.270;2023-06-10T04:48:00;10.15;;;5.75;;
15536;SDS011;7870;52.448;13.270;2023-06-10T04:50:27;12.80;;;6.18;;
15536;SDS011;7870;52.448;13.270;2023-06-10T04:52:54;12.73;;;5.63;;
15536;SDS011;7870;52.448;13.270;2023-06-10T04:55:23;10.13;;;5.85;;
15536;SDS011;7870;52.448;13.270;2023-06-10T04:57:50;11.65;;;5.82;;
15536;SDS011;7870;52.448;13.270;2023-06-10T05:00:17;10.70;;;6.03;;
15536;SDS011;7870;52.448;13.270;2023-06-10T05:02:44;10.25;;;6.30;;
15536;SDS011;7870;52.448;13.270;2023-06-10T05:05:11;16.90;;;7.25;;
15536;SDS011;7870;52.448;13.270;2023-06-10T05:07:38;12.07;;;6.03;;
15536;SDS011;7870;52.448;13.270;2023-06-10T05:10:04;12.45;;;6.07;;
15536;SDS011;7870;52.448;13.270;2023-06-10T05:12:31;11.40;;;6.53;;
15536;SDS011;7870;52.448;13.270;2023-06-10T05:14:58;10.75;;;6.30;;
15536;SDS011;7870;52.448;13.270;2023-06-10T05:17:25;12.65;;;5.88;;
15536;SDS011;7870;52.448;13.270;2023-06-10T05:19:51;12.50;;;6.20;;
15536;SDS011;7870;52.448;13.270;2023-06-10T05:22:19;8.80;;;5.55;;
15536;SDS011;7870;52.448;13.270;2023-06-10T05:24:45;13.63;;;7.10;;
15536;SDS011;7870;52.448;13.270;2023-06-10T05:27:12;11.65;;;6.43;;
15536;SDS011;7870;52.448;13.270;2023-06-10T05:29:39;12.55;;;6.38;;
15536;SDS011;7870;52.448;13.270;2023-06-10T05:32:06;12.82;;;6.22;;
15536;SDS011;7870;52.448;13.270;2023-06-10T05:34:33;11.00;;;6.13;;
15536;SDS011;7870;52.448;13.270;2023-06-10T05:37:00;14.65;;;6.43;;
15536;SDS011;7870;52.448;13.270;2023-06-10T05:39:27;14.13;;;6.13;;
15536;SDS011;7870;52.448;13.270;2023-06-10T05:41:53;12.68;;;7.20;;
15536;SDS011;7870;52.448;13.270;2023-06-10T05:44:20;11.50;;;6.10;;
15536;SDS011;7870;52.448;13.270;2023-06-10T05:46:46;12.23;;;6.07;;
15536;SDS011;7870;52.448;13.270;2023-06-10T05:49:13;13.45;;;6.85;;
15536;SDS011;7870;52.448;13.270;2023-06-10T05:51:40;12.68;;;6.78;;
15536;SDS011;7870;52.448;13.270;2023-06-10T05:54:06;12.52;;;6.25;;
15536;SDS011;7870;52.448;13.270;2023-06-10T05:56:33;10.32;;;6.13;;
15536;SDS011;7870;52.448;13.270;2023-06-10T05:58:59;14.95;;;6.40;;
15536;SDS011;7870;52.448;13.270;2023-06-10T06:01:26;10.32;;;6.07;;
15536;SDS011;7870;52.448;13.270;2023-06-10T06:03:53;12.02;;;6.80;;
15536;SDS011;7870;52.448;13.270;2023-06-10T06:06:20;16.17;;;7.70;;
15536;SDS011;7870;52.448;13.270;2023-06-10T06:08:47;12.32;;;6.88;;
15536;SDS011;7870;52.448;13.270;2023-06-10T06:11:14;13.50;;;7.35;;
15536;SDS011;7870;52.448;13.270;2023-06-10T06:13:41;8.88;;;6.60;;
15536;SDS011;7870;52.448;13.270;2023-06-10T06:16:08;12.75;;;7.32;;
15536;SDS011;7870;52.448;13.270;2023-06-10T06:18:35;11.25;;;5.97;;
15536;SDS011;7870;52.448;13.270;2023-06-10T06:21:01;14.07;;;7.20;;
15536;SDS011;7870;52.448;13.270;2023-06-10T06:23:28;11.55;;;6.50;;
15536;SDS011;7870;52.448;13.270;2023-06-10T06:25:55;10.88;;;6.40;;
15536;SDS011;7870;52.448;13.270;2023-06-10T06:28:21;8.95;;;6.35;;
15536;SDS011;7870;52.448;13.270;2023-06-10T06:30:49;10.63;;;6.43;;
15536;SDS011;7870;52.448;13.270;2023-06-10T06:33:15;12.80;;;6.72;;
15536;SDS011;7870;52.448;13.270;2023-06-10T06:35:42;10.77;;;7.13;;
15536;SDS011;7870;52.448;13.270;2023-06-10T06:38:08;10.68;;;6.32;;
15536;SDS011;7870;52.448;13.270;2023-06-10T06:40:35;10.10;;;6.78;;
15536;SDS011;7870;52.448;13.270;2023-06-10T06:43:02;12.77;;;6.63;;
15536;SDS011;7870;52.448;13.270;2023-06-10T06:45:40;10.75;;;6.15;;
15536;SDS011;7870;52.448;13.270;2023-06-10T06:48:07;14.13;;;6.90;;
15536;SDS011;7870;52.448;13.270;2023-06-10T06:50:33;15.73;;;7.53;;
15536;SDS011;7870;52.448;13.270;2023-06-10T06:53:01;10.63;;;6.97;;
15536;SDS011;7870;52.448;13.270;2023-06-10T06:55:30;11.68;;;6.20;;
15536;SDS011;7870;52.448;13.270;2023-06-10T06:57:56;10.57;;;5.88;;
15536;SDS011;7870;52.448;13.270;2023-06-10T07:00:23;12.60;;;7.28;;
15536;SDS011;7870;52.448;13.270;2023-06-10T07:02:49;13.70;;;6.82;;
15536;SDS011;7870;52.448;13.270;2023-06-10T07:05:16;14.68;;;6.70;;
15536;SDS011;7870;52.448;13.270;2023-06-10T07:07:43;15.20;;;7.10;;
15536;SDS011;7870;52.448;13.270;2023-06-10T07:10:09;13.15;;;6.90;;
15536;SDS011;7870;52.448;13.270;2023-06-10T07:12:36;11.18;;;7.35;;
15536;SDS011;7870;52.448;13.270;2023-06-10T07:15:03;9.90;;;6.50;;
15536;SDS011;7870;52.448;13.270;2023-06-10T07:17:29;12.00;;;6.93;;
15536;SDS011;7870;52.448;13.270;2023-06-10T07:19:56;14.80;;;7.47;;
15536;SDS011;7870;52.448;13.270;2023-06-10T07:22:25;9.27;;;6.63;;
15536;SDS011;7870;52.448;13.270;2023-06-10T07:24:52;10.57;;;6.50;;
15536;SDS011;7870;52.448;13.270;2023-06-10T07:27:21;14.38;;;6.60;;
15536;SDS011;7870;52.448;13.270;2023-06-10T07:29:47;10.88;;;7.40;;
15536;SDS011;7870;52.448;13.270;2023-06-10T07:32:14;12.27;;;7.20;;
15536;SDS011;7870;52.448;13.270;2023-06-10T07:34:44;12.85;;;7.53;;
15536;SDS011;7870;52.448;13.270;2023-06-10T07:37:11;10.38;;;6.65;;
15536;SDS011;7870;52.448;13.270;2023-06-10T07:39:37;10.18;;;6.43;;
15536;SDS011;7870;52.448;13.270;2023-06-10T07:42:04;11.02;;;6.40;;
15536;SDS011;7870;52.448;13.270;2023-06-10T07:44:31;10.30;;;7.15;;
15536;SDS011;7870;52.448;13.270;2023-06-10T07:46:58;9.40;;;7.07;;
15536;SDS011;7870;52.448;13.270;2023-06-10T07:49:24;11.73;;;6.82;;
15536;SDS011;7870;52.448;13.270;2023-06-10T07:51:53;12.82;;;6.43;;
15536;SDS011;7870;52.448;13.270;2023-06-10T07:54:21;11.00;;;6.78;;
15536;SDS011;7870;52.448;13.270;2023-06-10T07:56:48;10.85;;;6.28;;
15536;SDS011;7870;52.448;13.270;2023-06-10T07:59:14;10.05;;;6.65;;
15536;SDS011;7870;52.448;13.270;2023-06-10T08:01:42;11.82;;;6.15;;
15536;SDS011;7870;52.448;13.270;2023-06-10T08:04:09;11.38;;;6.45;;
15536;SDS011;7870;52.448;13.270;2023-06-10T08:06:35;11.95;;;6.75;;
15536;SDS011;7870;52.448;13.270;2023-06-10T08:09:03;12.20;;;7.15;;
15536;SDS011;7870;52.448;13.270;2023-06-10T08:11:30;14.32;;;7.22;;
15536;SDS011;7870;52.448;13.270;2023-06-10T08:13:56;12.85;;;7.25;;
15536;SDS011;7870;52.448;13.270;2023-06-10T08:16:23;9.25;;;6.25;;
15536;SDS011;7870;52.448;13.270;2023-06-10T08:18:49;10.02;;;6.65;;
15536;SDS011;7870;52.448;13.270;2023-06-10T08:23:47;12.40;;;7.43;;
15536;SDS011;7870;52.448;13.270;2023-06-10T08:26:14;14.80;;;7.65;;
15536;SDS011;7870;52.448;13.270;2023-06-10T08:28:40;10.32;;;6.55;;
15536;SDS011;7870;52.448;13.270;2023-06-10T08:31:07;15.65;;;7.18;;
15536;SDS011;7870;52.448;13.270;2023-06-10T08:33:34;9.63;;;7.28;;
15536;SDS011;7870;52.448;13.270;2023-06-10T08:36:00;11.95;;;7.72;;
15536;SDS011;7870;52.448;13.270;2023-06-10T08:38:27;11.15;;;7.20;;
15536;SDS011;7870;52.448;13.270;2023-06-10T08:40:55;11.13;;;7.03;;
15536;SDS011;7870;52.448;13.270;2023-06-10T08:43:46;12.60;;;7.57;;
15536;SDS011;7870;52.448;13.270;2023-06-10T08:46:21;13.77;;;7.40;;
15536;SDS011;7870;52.448;13.270;2023-06-10T08:48:48;11.65;;;6.55;;
15536;SDS011;7870;52.448;13.270;2023-06-10T08:51:15;10.00;;;7.10;;
15536;SDS011;7870;52.448;13.270;2023-06-10T08:53:47;10.32;;;7.10;;
15536;SDS011;7870;52.448;13.270;2023-06-10T08:56:17;11.00;;;7.28;;
15536;SDS011;7870;52.448;13.270;2023-06-10T08:58:43;10.73;;;6.78;;
15536;SDS011;7870;52.448;13.270;2023-06-10T09:01:10;9.00;;;6.70;;
15536;SDS011;7870;52.448;13.270;2023-06-10T09:03:39;8.80;;;6.55;;
15536;SDS011;7870;52.448;13.270;2023-06-10T09:06:06;13.20;;;7.22;;
15536;SDS011;7870;52.448;13.270;2023-06-10T09:08:33;11.57;;;6.60;;
15536;SDS011;7870;52.448;13.270;2023-06-10T09:11:01;10.65;;;6.47;;
15536;SDS011;7870;52.448;13.270;2023-06-10T09:13:29;8.27;;;5.80;;
15536;SDS011;7870;52.448;13.270;2023-06-10T09:15:55;9.63;;;5.57;;
15536;SDS011;7870;52.448;13.270;2023-06-10T09:18:27;13.45;;;6.60;;
15536;SDS011;7870;52.448;13.270;2023-06-10T09:20:54;9.70;;;6.32;;
15536;SDS011;7870;52.448;13.270;2023-06-10T09:23:21;12.43;;;6.45;;
15536;SDS011;7870;52.448;13.270;2023-06-10T09:25:53;10.75;;;6.72;;
15536;SDS011;7870;52.448;13.270;2023-06-10T09:28:22;10.63;;;6.72;;
15536;SDS011;7870;52.448;13.270;2023-06-10T09:30:49;10.07;;;6.22;;
15536;SDS011;7870;52.448;13.270;2023-06-10T09:33:18;10.23;;;6.78;;
15536;SDS011;7870;52.448;13.270;2023-06-10T09:35:45;9.27;;;6.63;;
15536;SDS011;7870;52.448;13.270;2023-06-10T09:38:14;9.98;;;6.35;;
15536;SDS011;7870;52.448;13.270;2023-06-10T09:40:52;8.85;;;6.10;;
15536;SDS011;7870;52.448;13.270;2023-06-10T09:43:19;14.20;;;6.68;;
15536;SDS011;7870;52.448;13.270;2023-06-10T09:45:49;9.77;;;6.15;;
15536;SDS011;7870;52.448;13.270;2023-06-10T09:50:43;11.13;;;6.18;;
15536;SDS011;7870;52.448;13.270;2023-06-10T09:53:11;16.08;;;7.38;;
15536;SDS011;7870;52.448;13.270;2023-06-10T09:55:38;14.27;;;6.30;;
15536;SDS011;7870;52.448;13.270;2023-06-10T09:58:05;11.27;;;6.32;;
15536;SDS011;7870;52.448;13.270;2023-06-10T10:00:32;7.82;;;6.30;;
15536;SDS011;7870;52.448;13.270;2023-06-10T10:02:59;10.23;;;6.97;;
15536;SDS011;7870;52.448;13.270;2023-06-10T10:05:27;14.90;;;7.20;;
15536;SDS011;7870;52.448;13.270;2023-06-10T10:07:53;10.50;;;6.22;;
15536;SDS011;7870;52.448;13.270;2023-06-10T10:10:22;9.77;;;6.60;;
15536;SDS011;7870;52.448;13.270;2023-06-10T10:12:54;11.13;;;6.68;;
15536;SDS011;7870;52.448;13.270;2023-06-10T10:15:23;14.60;;;6.93;;
15536;SDS011;7870;52.448;13.270;2023-06-10T10:17:52;9.15;;;6.28;;
15536;SDS011;7870;52.448;13.270;2023-06-10T10:20:20;11.38;;;6.13;;
15536;SDS011;7870;52.448;13.270;2023-06-10T10:22:55;12.50;;;6.55;;
15536;SDS011;7870;52.448;13.270;2023-06-10T10:25:23;9.52;;;6.35;;
15536;SDS011;7870;52.448;13.270;2023-06-10T10:28:06;11.07;;;6.20;;
15536;SDS011;7870;52.448;13.270;2023-06-10T10:30:42;8.70;;;6.93;;
15536;SDS011;7870;52.448;13.270;2023-06-10T10:36:17;10.93;;;6.47;;
15536;SDS011;7870;52.448;13.270;2023-06-10T10:38:45;7.82;;;6.20;;
15536;SDS011;7870;52.448;13.270;2023-06-10T10:41:12;9.90;;;6.20;;
15536;SDS011;7870;52.448;13.270;2023-06-10T10:43:39;11.43;;;6.68;;
15536;SDS011;7870;52.448;13.270;2023-06-10T10:46:09;8.30;;;6.28;;
15536;SDS011;7870;52.448;13.270;2023-06-10T10:48:39;12.25;;;6.60;;
15536;SDS011;7870;52.448;13.270;2023-06-10T10:51:07;11.30;;;6.60;;
15536;SDS011;7870;52.448;13.270;2023-06-10T10:53:34;11.20;;;6.03;;
15536;SDS011;7870;52.448;13.270;2023-06-10T10:56:07;9.50;;;6.05;;
15536;SDS011;7870;52.448;13.270;2023-06-10T10:58:35;13.57;;;6.68;;
15536;SDS011;7870;52.448;13.270;2023-06-10T11:01:09;13.70;;;6.75;;
15536;SDS011;7870;52.448;13.270;2023-06-10T11:03:41;10.80;;;6.18;;
15536;SDS011;7870;52.448;13.270;2023-06-10T11:06:14;9.82;;;6.38;;
15536;SDS011;7870;52.448;13.270;2023-06-10T11:11:21;6.97;;;5.68;;
15536;SDS011;7870;52.448;13.270;2023-06-10T11:16:28;6.43;;;5.20;;
15536;SDS011;7870;52.448;13.270;2023-06-10T11:18:56;11.50;;;5.47;;
15536;SDS011;7870;52.448;13.270;2023-06-10T11:21:23;8.98;;;5.28;;
15536;SDS011;7870;52.448;13.270;2023-06-10T11:23:57;10.55;;;5.22;;
15536;SDS011;7870;52.448;13.270;2023-06-10T11:29:09;10.32;;;5.60;;
15536;SDS011;7870;52.448;13.270;2023-06-10T11:31:38;8.77;;;6.30;;
15536;SDS011;7870;52.448;13.270;2023-06-10T11:34:06;7.80;;;6.00;;
15536;SDS011;7870;52.448;13.270;2023-06-10T11:36:34;8.48;;;5.55;;
15536;SDS011;7870;52.448;13.270;2023-06-10T11:39:04;9.15;;;5.38;;
15536;SDS011;7870;52.448;13.270;2023-06-10T11:41:32;8.23;;;5.50;;
15536;SDS011;7870;52.448;13.270;2023-06-10T11:44:04;8.63;;;5.22;;
15536;SDS011;7870;52.448;13.270;2023-06-10T11:46:34;6.45;;;4.60;;
15536;SDS011;7870;52.448;13.270;2023-06-10T11:49:02;7.85;;;4.88;;
15536;SDS011;7870;52.448;13.270;2023-06-10T11:51:31;6.93;;;5.82;;
15536;SDS011;7870;52.448;13.270;2023-06-10T11:53:59;6.77;;;4.53;;
15536;SDS011;7870;52.448;13.270;2023-06-10T11:56:26;10.85;;;5.13;;
15536;SDS011;7870;52.448;13.270;2023-06-10T11:58:57;11.27;;;5.50;;
15536;SDS011;7870;52.448;13.270;2023-06-10T12:01:34;12.85;;;4.80;;
15536;SDS011;7870;52.448;13.270;2023-06-10T12:04:06;11.07;;;5.68;;
15536;SDS011;7870;52.448;13.270;2023-06-10T12:06:37;10.75;;;5.15;;
15536;SDS011;7870;52.448;13.270;2023-06-10T12:09:13;5.78;;;4.82;;
15536;SDS011;7870;52.448;13.270;2023-06-10T12:11:51;14.65;;;5.90;;
15536;SDS011;7870;52.448;13.270;2023-06-10T12:14:49;13.38;;;5.18;;
15536;SDS011;7870;52.448;13.270;2023-06-10T12:17:21;7.18;;;5.10;;
15536;SDS011;7870;52.448;13.270;2023-06-10T12:19:49;7.63;;;4.85;;
15536;SDS011;7870;52.448;13.270;2023-06-10T12:22:17;6.28;;;4.90;;
15536;SDS011;7870;52.448;13.270;2023-06-10T12:25:06;8.73;;;5.07;;
15536;SDS011;7870;52.448;13.270;2023-06-10T12:27:34;8.77;;;4.85;;
15536;SDS011;7870;52.448;13.270;2023-06-10T12:30:01;6.88;;;5.35;;
15536;SDS011;7870;52.448;13.270;2023-06-10T12:32:37;9.00;;;5.22;;
15536;SDS011;7870;52.448;13.270;2023-06-10T12:35:05;8.30;;;4.82;;
15536;SDS011;7870;52.448;13.270;2023-06-10T12:37:33;6.70;;;5.25;;
15536;SDS011;7870;52.448;13.270;2023-06-10T12:40:02;7.55;;;4.55;;
15536;SDS011;7870;52.448;13.270;2023-06-10T12:42:30;8.05;;;4.50;;
15536;SDS011;7870;52.448;13.270;2023-06-10T12:44:57;6.25;;;4.63;;
15536;SDS011;7870;52.448;13.270;2023-06-10T12:47:30;8.30;;;4.68;;
15536;SDS011;7870;52.448;13.270;2023-06-10T12:49:59;10.02;;;5.07;;
15536;SDS011;7870;52.448;13.270;2023-06-10T12:52:26;6.45;;;4.95;;
15536;SDS011;7870;52.448;13.270;2023-06-10T12:54:53;6.22;;;5.10;;
15536;SDS011;7870;52.448;13.270;2023-06-10T12:57:21;6.85;;;5.07;;
15536;SDS011;7870;52.448;13.270;2023-06-10T12:59:48;7.63;;;5.60;;
15536;SDS011;7870;52.448;13.270;2023-06-10T13:04:50;9.88;;;5.47;;
15536;SDS011;7870;52.448;13.270;2023-06-10T13:07:17;7.38;;;5.10;;
15536;SDS011;7870;52.448;13.270;2023-06-10T13:09:44;6.68;;;4.88;;
15536;SDS011;7870;52.448;13.270;2023-06-10T13:12:11;7.05;;;5.22;;
15536;SDS011;7870;52.448;13.270;2023-06-10T13:14:42;5.93;;;5.25;;
15536;SDS011;7870;52.448;13.270;2023-06-10T13:17:08;6.22;;;5.05;;
15536;SDS011;7870;52.448;13.270;2023-06-10T13:19:35;7.18;;;4.90;;
15536;SDS011;7870;52.448;13.270;2023-06-10T13:22:02;8.13;;;5.55;;
15536;SDS011;7870;52.448;13.270;2023-06-10T13:24:28;6.53;;;4.47;;
15536;SDS011;7870;52.448;13.270;2023-06-10T13:26:55;6.38;;;4.72;;
15536;SDS011;7870;52.448;13.270;2023-06-10T13:29:22;7.43;;;4.57;;
15536;SDS011;7870;52.448;13.270;2023-06-10T13:31:49;7.20;;;5.40;;
15536;SDS011;7870;52.448;13.270;2023-06-10T13:34:16;10.68;;;5.05;;
15536;SDS011;7870;52.448;13.270;2023-06-10T13:36:42;5.63;;;4.78;;
15536;SDS011;7870;52.448;13.270;2023-06-10T13:39:09;12.15;;;5.60;;
15536;SDS011;7870;52.448;13.270;2023-06-10T13:41:36;9.90;;;5.72;;
15536;SDS011;7870;52.448;13.270;2023-06-10T13:44:02;10.60;;;5.35;;
15536;SDS011;7870;52.448;13.270;2023-06-10T13:46:29;9.00;;;6.13;;
15536;SDS011;7870;52.448;13.270;2023-06-10T13:48:56;10.95;;;5.80;;
15536;SDS011;7870;52.448;13.270;2023-06-10T13:51:23;7.70;;;5.90;;
15536;SDS011;7870;52.448;13.270;2023-06-10T13:53:49;6.97;;;5.55;;
15536;SDS011;7870;52.448;13.270;2023-06-10T13:56:18;8.27;;;6.32;;
15536;SDS011;7870;52.448;13.270;2023-06-10T13:58:45;6.80;;;6.07;;
15536;SDS011;7870;52.448;13.270;2023-06-10T14:01:11;7.40;;;5.97;;
15536;SDS011;7870;52.448;13.270;2023-06-10T14:03:38;7.85;;;5.63;;
15536;SDS011;7870;52.448;13.270;2023-06-10T14:06:05;7.93;;;6.35;;
15536;SDS011;7870;52.448;13.270;2023-06-10T14:08:31;10.95;;;6.22;;
15536;SDS011;7870;52.448;13.270;2023-06-10T14:10:58;6.93;;;5.43;;
15536;SDS011;7870;52.448;13.270;2023-06-10T14:13:25;8.48;;;6.05;;
15536;SDS011;7870;52.448;13.270;2023-06-10T14:15:51;6.68;;;5.57;;
15536;SDS011;7870;52.448;13.270;2023-06-10T14:18:18;7.35;;;5.80;;
15536;SDS011;7870;52.448;13.270;2023-06-10T14:20:45;7.70;;;5.95;;
15536;SDS011;7870;52.448;13.270;2023-06-10T14:23:12;6.07;;;5.20;;
15536;SDS011;7870;52.448;13.270;2023-06-10T14:25:39;6.82;;;5.75;;
15536;SDS011;7870;52.448;13.270;2023-06-10T14:28:05;9.23;;;5.18;;
15536;SDS011;7870;52.448;13.270;2023-06-10T14:30:32;6.88;;;5.82;;
15536;SDS011;7870;52.448;13.270;2023-06-10T14:32:58;7.85;;;5.80;;
15536;SDS011;7870;52.448;13.270;2023-06-10T14:35:25;6.05;;;5.10;;
15536;SDS011;7870;52.448;13.270;2023-06-10T14:37:51;9.68;;;5.10;;
15536;SDS011;7870;52.448;13.270;2023-06-10T14:40:18;5.43;;;4.93;;
15536;SDS011;7870;52.448;13.270;2023-06-10T14:42:47;9.88;;;5.40;;
15536;SDS011;7870;52.448;13.270;2023-06-10T14:45:14;7.75;;;5.53;;
15536;SDS011;7870;52.448;13.270;2023-06-10T14:47:41;6.97;;;5.63;;
15536;SDS011;7870;52.448;13.270;2023-06-10T14:50:08;14.43;;;6.13;;
15536;SDS011;7870;52.448;13.270;2023-06-10T14:52:34;7.82;;;5.50;;
15536;SDS011;7870;52.448;13.270;2023-06-10T14:55:01;8.48;;;5.30;;
15536;SDS011;7870;52.448;13.270;2023-06-10T14:57:28;7.38;;;5.72;;
15536;SDS011;7870;52.448;13.270;2023-06-10T14:59:54;5.50;;;4.90;;
15536;SDS011;7870;52.448;13.270;2023-06-10T15:02:22;6.60;;;5.13;;
15536;SDS011;7870;52.448;13.270;2023-06-10T15:04:49;8.75;;;5.43;;
15536;SDS011;7870;52.448;13.270;2023-06-10T15:07:16;11.52;;;5.75;;
15536;SDS011;7870;52.448;13.270;2023-06-10T15:09:44;7.43;;;4.40;;